createdAt,value
2017-12-08T00:01:00.595Z,51.80
2017-12-08T00:03:27.776Z,51.80
2017-12-08T00:05:56.684Z,52.00
2017-12-08T00:08:23.863Z,52.00
2017-12-08T00:10:51.774Z,51.70
2017-12-08T00:13:19.695Z,51.90
2017-12-08T00:15:47.686Z,51.90
2017-12-08T00:18:14.836Z,51.90
2017-12-08T00:20:41.983Z,52.00
2017-12-08T00:23:09.157Z,52.20
2017-12-08T00:25:36.338Z,52.20
2017-12-08T00:28:03.516Z,52.00
2017-12-08T00:30:30.664Z,52.10
2017-12-08T00:32:58.754Z,51.70
2017-12-08T00:35:26.727Z,51.90
2017-12-08T00:37:53.903Z,51.80
2017-12-08T00:40:21.046Z,51.90
2017-12-08T00:42:48.224Z,52.00
2017-12-08T00:45:17.051Z,51.10
2017-12-08T00:47:45.144Z,51.00
2017-12-08T00:50:13.223Z,51.20
2017-12-08T00:52:40.395Z,52.10
2017-12-08T00:55:07.551Z,52.30
2017-12-08T00:57:35.478Z,52.50
2017-12-08T01:00:03.528Z,52.80
2017-12-08T01:02:31.507Z,52.70
2017-12-08T01:04:58.651Z,52.50
2017-12-08T01:07:26.686Z,52.90
2017-12-08T01:09:54.603Z,53.10
2017-12-08T01:12:22.562Z,53.00
2017-12-08T01:14:49.711Z,53.00
2017-12-08T01:17:16.854Z,53.00
2017-12-08T01:19:44.003Z,53.20
2017-12-08T01:22:11.959Z,53.20
2017-12-08T01:24:40.656Z,52.60
2017-12-08T01:27:08.719Z,52.60
2017-12-08T01:29:37.590Z,52.90
2017-12-08T01:32:05.645Z,52.90
2017-12-08T01:34:32.820Z,52.90
2017-12-08T01:37:00.736Z,53.20
2017-12-08T01:39:28.774Z,53.00
2017-12-08T01:41:56.687Z,53.00
2017-12-08T01:44:23.875Z,53.00
2017-12-08T01:46:51.920Z,53.00
2017-12-08T01:49:20.035Z,52.90
2017-12-08T01:51:47.961Z,53.20
2017-12-08T01:54:15.098Z,53.10
2017-12-08T01:56:43.098Z,53.10
2017-12-08T01:59:11.159Z,53.40
2017-12-08T02:01:38.346Z,53.40
2017-12-08T02:04:06.250Z,53.80
2017-12-08T02:06:34.218Z,53.20
2017-12-08T02:09:01.362Z,52.90
2017-12-08T02:11:29.444Z,53.40
2017-12-08T02:13:56.594Z,53.40
2017-12-08T02:16:24.550Z,53.40
2017-12-08T02:18:52.050Z,53.30
2017-12-08T02:21:20.162Z,53.30
2017-12-08T02:23:48.077Z,53.20
2017-12-08T02:26:15.254Z,53.20
2017-12-08T02:28:42.409Z,53.30
2017-12-08T02:31:10.379Z,53.40
2017-12-08T02:33:38.454Z,53.50
2017-12-08T02:36:05.607Z,53.50
2017-12-08T02:38:32.754Z,53.60
2017-12-08T02:40:59.904Z,53.50
2017-12-08T02:43:27.050Z,53.30
2017-12-08T02:45:54.191Z,53.20
2017-12-08T02:48:21.339Z,53.40
2017-12-08T02:50:48.492Z,53.40
2017-12-08T02:53:15.686Z,53.40
2017-12-08T02:55:43.604Z,53.30
2017-12-08T02:58:10.751Z,53.30
2017-12-08T03:00:37.906Z,53.20
2017-12-08T03:03:05.059Z,53.20
2017-12-08T03:05:32.203Z,52.90
2017-12-08T03:07:59.342Z,52.60
2017-12-08T03:10:26.487Z,52.50
2017-12-08T03:12:53.631Z,52.60
2017-12-08T03:15:20.774Z,53.10
2017-12-08T03:17:48.687Z,53.80
2017-12-08T03:20:15.839Z,53.80
2017-12-08T03:22:42.982Z,53.90
2017-12-08T03:25:10.128Z,53.60
2017-12-08T03:27:37.307Z,53.70
2017-12-08T03:30:05.260Z,53.80
2017-12-08T03:32:32.407Z,53.90
2017-12-08T03:35:00.335Z,54.10
2017-12-08T03:37:28.242Z,54.00
2017-12-08T03:39:55.416Z,53.90
2017-12-08T03:42:23.483Z,53.80
2017-12-08T03:44:50.626Z,53.60
2017-12-08T03:47:18.531Z,54.30
2017-12-08T03:49:45.675Z,53.90
2017-12-08T03:52:13.731Z,54.10
2017-12-08T03:54:40.902Z,54.00
2017-12-08T03:57:08.051Z,54.20
2017-12-08T03:59:35.242Z,54.10
2017-12-08T04:02:03.162Z,53.80
2017-12-08T04:04:31.227Z,53.80
2017-12-08T04:06:59.170Z,53.90
2017-12-08T04:09:26.318Z,53.80
2017-12-08T04:11:53.462Z,53.80
2017-12-08T04:14:20.606Z,53.80
2017-12-08T04:16:47.751Z,54.00
2017-12-08T04:19:14.898Z,53.90
2017-12-08T04:21:42.051Z,53.70
2017-12-08T04:24:09.238Z,53.60
2017-12-08T04:26:36.392Z,53.80
2017-12-08T04:29:03.534Z,53.80
2017-12-08T04:31:30.714Z,54.00
2017-12-08T04:33:58.775Z,53.90
2017-12-08T04:36:25.919Z,54.00
2017-12-08T04:38:53.067Z,54.10
2017-12-08T04:41:20.212Z,53.90
2017-12-08T04:43:48.165Z,53.70
2017-12-08T04:46:15.312Z,54.10
2017-12-08T04:48:42.515Z,54.00
2017-12-08T04:51:09.664Z,54.00
2017-12-08T04:53:36.816Z,53.90
2017-12-08T04:56:03.956Z,54.00
2017-12-08T04:58:31.098Z,53.70
2017-12-08T05:00:59.012Z,53.80
2017-12-08T05:03:27.870Z,53.90
2017-12-08T05:05:55.847Z,53.90
2017-12-08T05:08:23.838Z,53.80
2017-12-08T05:10:50.987Z,53.70
2017-12-08T05:13:19.838Z,54.10
2017-12-08T05:15:47.916Z,53.60
2017-12-08T05:18:15.958Z,53.50
2017-12-08T05:20:43.890Z,53.40
2017-12-08T05:23:11.836Z,53.20
2017-12-08T05:25:39.767Z,53.10
2017-12-08T05:28:07.833Z,53.40
2017-12-08T05:30:35.935Z,53.00
2017-12-08T05:33:03.111Z,52.50
2017-12-08T05:35:31.035Z,52.50
2017-12-08T05:37:58.182Z,52.30
2017-12-08T05:40:26.154Z,52.50
2017-12-08T05:42:53.299Z,52.50
2017-12-08T05:45:21.214Z,52.80
2017-12-08T05:47:48.363Z,52.60
2017-12-08T05:50:15.543Z,52.50
2017-12-08T05:52:43.458Z,52.20
2017-12-08T05:55:11.380Z,52.30
2017-12-08T05:57:40.201Z,53.50
2017-12-08T06:00:08.241Z,53.00
2017-12-08T06:02:37.055Z,53.30
2017-12-08T06:05:04.204Z,53.30
2017-12-08T06:07:31.381Z,53.20
2017-12-08T06:09:58.527Z,53.30
2017-12-08T06:12:25.708Z,53.00
2017-12-08T06:14:53.650Z,53.40
2017-12-08T06:17:21.626Z,53.90
2017-12-08T06:19:49.716Z,54.30
2017-12-08T06:22:16.862Z,54.80
2017-12-08T06:24:44.023Z,54.70
2017-12-08T06:27:11.163Z,54.20
2017-12-08T06:29:38.310Z,54.80
2017-12-08T06:32:05.493Z,54.90
2017-12-08T06:34:33.443Z,54.40
2017-12-08T06:37:01.507Z,54.60
2017-12-08T06:39:28.655Z,54.50
2017-12-08T06:41:55.846Z,55.10
2017-12-08T06:44:24.537Z,55.40
2017-12-08T06:46:51.723Z,55.20
2017-12-08T06:49:18.895Z,54.80
2017-12-08T06:51:46.038Z,55.10
2017-12-08T06:54:13.204Z,55.20
2017-12-08T06:56:41.175Z,55.00
2017-12-08T06:59:08.319Z,54.80
2017-12-08T07:01:36.498Z,54.80
2017-12-08T07:04:03.648Z,54.80
2017-12-08T07:06:30.795Z,54.60
2017-12-08T07:08:57.940Z,54.40
2017-12-08T07:11:25.090Z,55.50
2017-12-08T07:13:52.271Z,55.10
2017-12-08T07:16:19.411Z,55.10
2017-12-08T07:18:46.748Z,55.00
2017-12-08T07:21:13.896Z,55.70
2017-12-08T07:23:41.046Z,54.30
2017-12-08T07:26:08.203Z,54.40
2017-12-08T07:28:35.383Z,54.70
2017-12-08T07:31:02.531Z,54.00
2017-12-08T07:33:29.679Z,53.70
2017-12-08T07:35:56.823Z,54.00
2017-12-08T07:38:24.007Z,53.10
2017-12-08T07:40:51.956Z,53.30
2017-12-08T07:43:20.051Z,52.90
2017-12-08T07:45:48.871Z,53.60
2017-12-08T07:48:16.010Z,52.90
2017-12-08T07:50:43.195Z,52.80
2017-12-08T07:53:10.342Z,52.50
2017-12-08T07:55:37.518Z,52.60
2017-12-08T07:58:05.476Z,52.70
2017-12-08T08:00:32.650Z,52.90
2017-12-08T08:02:59.795Z,53.20
2017-12-08T08:05:26.990Z,53.10
2017-12-08T08:07:54.137Z,53.80
2017-12-08T08:10:22.051Z,53.10
2017-12-08T08:12:49.195Z,53.20
2017-12-08T08:15:16.340Z,53.80
2017-12-08T08:17:43.523Z,53.20
2017-12-08T08:20:10.679Z,53.80
2017-12-08T08:22:37.836Z,54.40
2017-12-08T08:25:05.000Z,53.60
2017-12-08T08:27:32.964Z,55.00
2017-12-08T08:30:00.885Z,54.90
2017-12-08T08:32:28.037Z,54.50
2017-12-08T08:34:55.223Z,55.50
2017-12-08T08:37:22.382Z,54.60
2017-12-08T08:39:49.570Z,55.40
2017-12-08T08:42:16.764Z,54.30
2017-12-08T08:59:03.675Z,54.70
2017-12-08T09:01:31.439Z,54.60
2017-12-08T09:03:58.600Z,53.40
2017-12-08T09:06:27.179Z,52.40
2017-12-08T09:08:54.344Z,52.00
2017-12-08T09:11:21.543Z,51.70
2017-12-08T09:13:49.664Z,51.50
2017-12-08T09:16:16.852Z,51.30
2017-12-08T09:18:44.771Z,51.20
2017-12-08T09:21:11.999Z,51.10
2017-12-08T09:23:39.550Z,51.10
2017-12-08T09:26:06.737Z,51.20
2017-12-08T09:28:34.807Z,50.90
2017-12-08T09:31:01.962Z,51.20
2017-12-08T09:33:29.125Z,51.30
2017-12-08T09:35:57.228Z,51.10
2017-12-08T09:38:25.199Z,51.20
2017-12-08T09:40:54.162Z,51.00
2017-12-08T09:43:22.224Z,50.80
2017-12-08T09:45:49.378Z,50.90
2017-12-08T09:48:16.552Z,51.00
2017-12-08T09:50:43.784Z,51.00
2017-12-08T09:53:10.933Z,51.20
2017-12-08T09:55:39.025Z,51.10
2017-12-08T09:58:06.180Z,50.90
2017-12-08T10:00:33.335Z,50.80
2017-12-08T10:03:00.487Z,50.80
2017-12-08T10:05:27.634Z,51.20
2017-12-08T10:07:54.779Z,51.80
2017-12-08T10:10:22.017Z,51.70
2017-12-08T10:12:49.262Z,51.40
2017-12-08T10:15:17.285Z,51.20
2017-12-08T10:17:45.264Z,51.00
2017-12-08T10:20:12.457Z,51.00
2017-12-08T10:22:39.647Z,51.10
2017-12-08T10:25:12.674Z,51.20
2017-12-08T10:27:39.827Z,51.60
2017-12-08T10:30:07.022Z,51.20
2017-12-08T10:32:34.210Z,51.00
2017-12-08T10:35:02.424Z,51.10
2017-12-08T10:37:29.858Z,51.00
2017-12-08T10:40:05.298Z,51.00
2017-12-08T10:42:32.439Z,51.50
2017-12-08T10:45:00.355Z,51.20
2017-12-08T10:47:27.554Z,51.20
2017-12-08T10:49:55.478Z,51.50
2017-12-08T10:52:22.622Z,51.30
2017-12-08T10:54:50.712Z,51.40
2017-12-08T10:57:18.763Z,51.10
2017-12-08T10:59:45.905Z,51.30
2017-12-08T11:02:13.065Z,51.20
2017-12-08T11:04:40.441Z,51.20
2017-12-08T11:07:07.638Z,51.30
2017-12-08T11:09:34.805Z,52.20
2017-12-08T11:12:01.990Z,51.90
2017-12-08T11:14:29.160Z,52.00
2017-12-08T11:16:57.084Z,52.20
2017-12-08T11:19:24.388Z,52.40
2017-12-08T11:21:52.558Z,51.90
2017-12-08T11:24:19.768Z,51.60
2017-12-08T11:26:46.969Z,51.80
2017-12-08T11:29:14.202Z,51.70
2017-12-08T11:31:41.385Z,51.80
2017-12-08T11:34:09.331Z,52.60
2017-12-08T11:36:36.567Z,52.60
2017-12-08T11:39:03.815Z,52.10
2017-12-08T11:41:30.979Z,51.40
2017-12-08T11:43:58.119Z,51.70
2017-12-08T11:46:25.275Z,51.60
2017-12-08T11:48:52.455Z,50.80
2017-12-08T11:51:19.603Z,51.10
2017-12-08T11:53:46.746Z,51.20
2017-12-08T11:56:13.890Z,50.90
2017-12-08T11:58:41.031Z,50.80
2017-12-08T12:01:08.215Z,50.80
2017-12-08T12:03:36.130Z,51.70
2017-12-08T12:06:03.518Z,51.70
2017-12-08T12:08:30.664Z,51.40
2017-12-08T12:10:59.240Z,51.20
2017-12-08T12:13:27.989Z,51.20
2017-12-08T12:15:55.896Z,51.00
2017-12-08T12:18:24.087Z,50.90
2017-12-08T12:20:51.611Z,50.90
2017-12-08T12:23:20.519Z,51.60
2017-12-08T12:25:48.835Z,51.00
2017-12-08T12:28:17.364Z,51.00
2017-12-08T12:30:45.048Z,50.90
2017-12-08T12:33:12.195Z,51.20
2017-12-08T12:35:39.348Z,50.70
2017-12-08T12:38:07.354Z,51.20
2017-12-08T12:40:34.519Z,51.20
2017-12-08T12:43:02.631Z,51.20
2017-12-08T12:45:29.951Z,51.20
2017-12-08T12:47:58.026Z,51.00
2017-12-08T12:50:25.322Z,50.90
2017-12-08T12:52:55.493Z,51.70
2017-12-08T12:55:23.449Z,51.20
2017-12-08T12:57:50.815Z,51.20
2017-12-08T13:00:18.761Z,51.20
2017-12-08T13:02:45.903Z,51.10
2017-12-08T13:05:13.055Z,51.10
2017-12-08T13:07:40.235Z,51.10
2017-12-08T13:10:08.161Z,51.60
2017-12-08T13:12:35.376Z,51.70
2017-12-08T13:15:03.319Z,50.90
2017-12-08T13:17:31.251Z,51.30
2017-12-08T13:19:59.263Z,51.30
2017-12-08T13:22:28.011Z,51.20
2017-12-08T13:24:55.167Z,51.10
2017-12-08T13:27:22.315Z,51.40
2017-12-08T13:29:49.459Z,51.40
2017-12-08T13:32:16.611Z,50.90
2017-12-08T13:34:43.758Z,50.60
2017-12-08T13:37:10.908Z,50.60
2017-12-08T13:39:38.059Z,51.00
2017-12-08T13:42:05.209Z,51.30
2017-12-08T13:44:32.361Z,51.50
2017-12-08T13:46:59.519Z,50.70
2017-12-08T13:49:26.671Z,50.70
2017-12-08T13:51:53.862Z,50.80
2017-12-08T13:54:38.471Z,50.80
2017-12-08T13:57:05.700Z,50.60
2017-12-08T13:59:33.603Z,50.60
2017-12-08T14:02:00.763Z,50.60
2017-12-08T14:04:27.911Z,50.40
2017-12-08T14:06:55.059Z,50.60
2017-12-08T14:09:22.210Z,50.50
2017-12-08T14:11:49.386Z,50.50
2017-12-08T14:14:16.527Z,50.70
2017-12-08T14:16:44.563Z,50.70
2017-12-08T14:19:11.711Z,49.80
2017-12-08T14:21:39.687Z,52.00
2017-12-08T14:24:06.830Z,50.20
2017-12-08T14:26:33.983Z,50.20
2017-12-08T14:29:01.126Z,49.90
2017-12-08T14:31:28.276Z,49.70
2017-12-08T14:33:55.413Z,49.80
2017-12-08T14:36:23.326Z,50.20
2017-12-08T14:38:50.514Z,50.10
2017-12-08T14:41:18.569Z,50.10
2017-12-08T14:43:46.515Z,50.10
2017-12-08T14:46:14.584Z,49.90
2017-12-08T14:48:41.727Z,49.90
2017-12-08T14:51:08.875Z,49.90
2017-12-08T14:53:36.022Z,51.20
2017-12-08T14:56:03.166Z,50.40
2017-12-08T14:58:32.467Z,50.00
2017-12-08T15:00:59.957Z,50.20
2017-12-08T15:03:28.290Z,50.00
2017-12-08T15:05:55.511Z,49.90
2017-12-08T15:08:23.627Z,49.80
2017-12-08T15:10:51.211Z,49.90
2017-12-08T15:13:18.424Z,49.90
2017-12-08T15:15:46.346Z,50.10
2017-12-08T15:18:13.498Z,50.00
2017-12-08T15:20:40.663Z,50.80
2017-12-08T15:23:07.813Z,50.80
2017-12-08T15:25:35.057Z,50.40
2017-12-08T15:28:02.208Z,50.40
2017-12-08T15:30:29.356Z,50.30
2017-12-08T15:32:56.502Z,50.40
2017-12-08T15:35:26.592Z,50.60
2017-12-08T15:37:53.874Z,50.20
2017-12-08T15:40:21.020Z,50.40
2017-12-08T15:42:48.235Z,50.40
2017-12-08T15:45:16.159Z,50.50
2017-12-08T15:47:43.410Z,50.40
2017-12-08T15:50:11.315Z,51.20
2017-12-08T15:52:38.471Z,51.20
2017-12-08T15:55:06.414Z,52.90
2017-12-08T15:57:33.563Z,52.80
2017-12-08T16:00:00.710Z,50.10
2017-12-08T16:02:27.854Z,49.70
2017-12-08T16:04:55.038Z,50.80
2017-12-08T16:07:22.960Z,49.60
2017-12-08T16:09:50.110Z,49.00
2017-12-08T16:12:17.310Z,49.00
2017-12-08T16:14:44.461Z,49.00
2017-12-08T16:17:11.680Z,49.50
2017-12-08T16:19:38.855Z,49.90
2017-12-08T16:22:06.005Z,49.40
2017-12-08T16:24:33.178Z,49.00
2017-12-08T16:27:01.098Z,50.20
2017-12-08T16:29:28.275Z,50.20
2017-12-08T16:31:55.415Z,49.60
2017-12-08T16:34:22.567Z,49.30
2017-12-08T16:36:49.715Z,49.30
2017-12-08T16:39:16.867Z,50.50
2017-12-08T16:41:44.070Z,51.50
2017-12-08T16:44:11.258Z,50.80
2017-12-08T16:46:38.400Z,50.50
2017-12-08T16:49:05.549Z,50.20
2017-12-08T16:51:32.699Z,50.50
2017-12-08T16:53:59.842Z,51.30
2017-12-08T16:56:26.991Z,50.60
2017-12-08T16:58:54.181Z,50.50
2017-12-08T17:01:21.326Z,50.00
2017-12-08T17:03:49.234Z,50.10
2017-12-08T17:06:17.146Z,50.40
2017-12-08T17:08:44.343Z,50.30
2017-12-08T17:11:11.496Z,50.20
2017-12-08T17:13:39.439Z,50.60
2017-12-08T17:16:06.604Z,50.10
2017-12-08T17:18:34.546Z,50.00
2017-12-08T17:21:01.690Z,49.90
2017-12-08T17:23:28.852Z,50.10
2017-12-08T17:25:55.996Z,49.90
2017-12-08T17:28:23.172Z,49.70
2017-12-08T17:30:50.319Z,49.70
2017-12-08T17:33:17.517Z,50.10
2017-12-08T17:35:44.655Z,50.00
2017-12-08T17:38:12.865Z,49.60
2017-12-08T17:40:40.011Z,49.60
2017-12-08T17:43:08.058Z,49.60
2017-12-08T17:45:35.970Z,50.70
2017-12-08T17:48:03.115Z,50.70
2017-12-08T17:50:31.021Z,50.60
2017-12-08T17:52:59.059Z,50.80
2017-12-08T17:55:27.024Z,50.40
2017-12-08T17:57:55.187Z,49.90
2017-12-08T18:00:22.335Z,49.50
2017-12-08T18:02:49.482Z,49.40
2017-12-08T18:05:16.626Z,49.30
2017-12-08T18:07:44.821Z,49.40
2017-12-08T18:10:11.996Z,49.60
2017-12-08T18:12:39.143Z,49.60
2017-12-08T18:15:06.290Z,49.60
2017-12-08T18:17:33.451Z,49.50
2017-12-08T18:20:00.598Z,49.40
2017-12-08T18:22:27.747Z,49.40
2017-12-08T18:24:54.895Z,49.70
2017-12-08T18:27:22.046Z,49.60
2017-12-08T18:29:49.955Z,49.50
2017-12-08T18:32:17.135Z,49.50
2017-12-08T18:34:44.282Z,49.50
2017-12-08T18:37:11.424Z,49.60
2017-12-08T18:39:39.335Z,49.80
2017-12-08T18:42:06.519Z,49.80
2017-12-08T18:44:33.671Z,49.60
2017-12-08T18:47:00.815Z,49.60
2017-12-08T18:49:27.962Z,49.60
2017-12-08T18:51:55.110Z,49.60
2017-12-08T18:54:23.156Z,49.70
2017-12-08T18:56:51.283Z,49.80
2017-12-08T18:59:20.083Z,49.60
2017-12-08T19:01:48.102Z,49.90
2017-12-08T19:04:15.247Z,49.90
2017-12-08T19:06:42.395Z,49.90
2017-12-08T19:09:09.544Z,49.90
2017-12-08T19:11:37.586Z,50.00
2017-12-08T19:14:04.735Z,50.00
2017-12-08T19:16:31.879Z,49.80
2017-12-08T19:18:59.838Z,49.70
2017-12-08T19:21:27.859Z,50.40
2017-12-08T19:23:55.012Z,50.30
2017-12-08T19:26:22.156Z,50.30
2017-12-08T19:28:49.333Z,50.10
2017-12-08T19:31:16.522Z,49.90
2017-12-08T19:33:44.469Z,49.80
2017-12-08T19:36:12.398Z,49.90
2017-12-08T19:38:39.543Z,49.60
2017-12-08T19:41:06.686Z,49.70
2017-12-08T19:43:33.838Z,49.60
2017-12-08T19:46:01.044Z,49.70
2017-12-08T19:48:28.214Z,49.60
2017-12-08T19:50:56.123Z,49.80
2017-12-08T19:53:23.273Z,49.60
2017-12-08T19:55:50.415Z,49.80
2017-12-08T19:58:17.588Z,49.80
2017-12-08T20:00:44.732Z,49.80
2017-12-08T20:03:11.878Z,49.80
2017-12-08T20:05:39.025Z,50.10
2017-12-08T20:08:06.170Z,50.10
2017-12-08T20:10:33.350Z,49.90
2017-12-08T20:13:00.491Z,50.60
2017-12-08T20:15:27.683Z,49.90
2017-12-08T20:17:54.838Z,49.90
2017-12-08T20:20:22.755Z,50.00
2017-12-08T20:22:49.956Z,50.00
2017-12-08T20:25:18.758Z,50.00
2017-12-08T20:27:46.706Z,50.10
2017-12-08T20:30:13.883Z,50.10
2017-12-08T20:32:41.795Z,50.20
2017-12-08T20:35:08.983Z,50.20
2017-12-08T20:37:36.907Z,49.60
2017-12-08T20:40:04.057Z,50.00
2017-12-08T20:42:31.208Z,50.10
2017-12-08T20:44:58.353Z,50.00
2017-12-08T20:47:25.499Z,49.90
2017-12-08T20:49:52.683Z,50.30
2017-12-08T20:52:19.830Z,50.00
2017-12-08T20:54:47.974Z,49.80
2017-12-08T20:57:15.120Z,50.30
2017-12-08T20:59:42.304Z,50.10
2017-12-08T21:02:10.344Z,49.90
2017-12-08T21:04:37.527Z,50.60
2017-12-08T21:07:05.530Z,50.60
2017-12-08T21:09:32.719Z,50.60
2017-12-08T21:11:59.867Z,50.60
2017-12-08T21:14:27.011Z,50.50
2017-12-08T21:16:54.154Z,50.50
2017-12-08T21:19:22.108Z,50.50
2017-12-08T21:21:50.035Z,50.20
2017-12-08T21:24:17.327Z,50.20
2017-12-08T21:26:44.507Z,50.20
2017-12-08T21:29:11.709Z,50.30
2017-12-08T21:31:38.899Z,50.40
2017-12-08T21:34:06.806Z,50.00
2017-12-08T21:36:33.947Z,50.00
2017-12-08T21:39:01.094Z,50.30
2017-12-08T21:41:28.243Z,50.10
2017-12-08T21:43:55.392Z,50.20
2017-12-08T21:46:22.550Z,50.10
2017-12-08T21:48:49.735Z,50.10
2017-12-08T21:51:16.874Z,50.00
2017-12-08T21:53:44.022Z,50.00
2017-12-08T21:56:11.166Z,50.00
2017-12-08T21:58:38.318Z,50.10
2017-12-08T22:01:05.467Z,50.10
2017-12-08T22:03:32.613Z,50.00
2017-12-08T22:05:59.759Z,50.00
2017-12-08T22:08:26.908Z,50.10
2017-12-08T22:10:54.066Z,49.90
2017-12-08T22:13:21.217Z,50.30
2017-12-08T22:15:48.391Z,50.30
2017-12-08T22:18:15.618Z,50.10
2017-12-08T22:20:43.561Z,50.30
2017-12-08T22:23:12.251Z,50.20
2017-12-08T22:25:40.164Z,50.10
2017-12-08T22:28:08.338Z,50.10
2017-12-08T22:30:35.523Z,50.30
2017-12-08T22:35:49.981Z,50.00
2017-12-08T22:38:28.762Z,50.00
2017-12-08T22:40:56.640Z,49.90
2017-12-08T22:43:23.790Z,50.10
2017-12-08T22:45:50.986Z,50.00
2017-12-08T22:48:18.138Z,50.30
2017-12-08T22:50:45.366Z,50.40
2017-12-08T22:53:12.527Z,50.00
2017-12-08T22:55:39.673Z,50.00
2017-12-08T22:58:06.822Z,50.00
2017-12-08T23:00:33.968Z,49.90
2017-12-08T23:03:01.254Z,50.00
2017-12-08T23:05:28.395Z,50.10
2017-12-08T23:07:55.535Z,50.30
2017-12-08T23:10:22.723Z,50.10
2017-12-08T23:12:51.639Z,49.70
2017-12-08T23:15:18.788Z,49.70
2017-12-08T23:17:45.942Z,49.80
2017-12-08T23:20:13.128Z,50.10
2017-12-08T23:22:40.315Z,50.30
2017-12-08T23:25:08.255Z,50.30
2017-12-08T23:27:36.202Z,50.20
2017-12-08T23:30:03.352Z,50.90
2017-12-08T23:32:30.493Z,50.20
2017-12-08T23:34:58.519Z,50.10
2017-12-08T23:37:25.675Z,49.80
2017-12-08T23:39:54.400Z,50.00
2017-12-08T23:42:22.516Z,49.90
2017-12-08T23:44:50.587Z,49.80
2017-12-08T23:47:17.732Z,49.70
2017-12-08T23:49:45.643Z,49.90
2017-12-08T23:52:13.554Z,50.10
2017-12-08T23:54:40.704Z,50.00
2017-12-08T23:57:07.863Z,49.90
2017-12-08T23:59:35.051Z,49.90
